Air Quality Table

TIMESTAMP NO2 O3 PM2.5 TEMP HUM AIRPRES WS WD NO
2021-07-28 08:00 24.66 ug/m3 86.44 ug/m3 17.95 ug/m3 29.67 C 28.34 % 1,003.16 mbar 1.86 m/s 12.48 Deg 2.7 ug/m3
2021-07-28 07:00 32.71 ug/m3 72.41 ug/m3 12.01 ug/m3 28.19 C 31.52 % 1,003.04 mbar 0.78 m/s 179.37 Deg 1.92 ug/m3
2021-07-28 06:00 19.87 ug/m3 81.59 ug/m3 8.27 ug/m3 26.1 C 38.9 % 1,002.90 mbar 0.52 m/s 238.68 Deg 0.37 ug/m3
2021-07-28 05:00 8.89 ug/m3 91.99 ug/m3 7.08 ug/m3 25.56 C 50.5 % 1,002.76 mbar 0.86 m/s 332.58 Deg 0.03 ug/m3
2021-07-28 04:00 5.07 ug/m3 99.5 ug/m3 6.91 ug/m3 25.9 C 47.27 % 1,002.68 mbar 1.17 m/s 343.13 Deg 0.1 ug/m3
2021-07-28 03:00 6.68 ug/m3 96.89 ug/m3 6.15 ug/m3 26.12 C 41.95 % 1,002.89 mbar 1.08 m/s 342.68 Deg 0.09 ug/m3
2021-07-28 02:00 4.47 ug/m3 101.28 ug/m3 7.87 ug/m3 26.38 C 31.79 % 1,003.19 mbar 0.82 m/s 334.37 Deg -0.01 ug/m3
2021-07-28 01:00 20.96 ug/m3 73.47 ug/m3 11.2 ug/m3 26.39 C 30.18 % 1,003.50 mbar 0.43 m/s 290.65 Deg 0.14 ug/m3
2021-07-28 00:00 24.23 ug/m3 54.25 ug/m3 9.23 ug/m3 26.41 C 41.07 % 1,003.92 mbar 0.45 m/s 287.65 Deg 0.08 ug/m3
2021-07-27 23:00 12.87 ug/m3 81.32 ug/m3 12.54 ug/m3 27.47 C 38.96 % 1,004.12 mbar 0.41 m/s 239.71 Deg 0.1 ug/m3
2021-07-27 22:00 18.87 ug/m3 67.89 ug/m3 11.6 ug/m3 27.34 C 58.22 % 1,004.24 mbar 0.48 m/s 299.69 Deg 0.23 ug/m3
2021-07-27 21:00 12.88 ug/m3 73.83 ug/m3 9.86 ug/m3 27.73 C 62.07 % 1,004.13 mbar 0.61 m/s 222.59 Deg 0.15 ug/m3
2021-07-27 20:00 11.68 ug/m3 88.26 ug/m3 9.48 ug/m3 29.16 C 51.76 % 1,003.75 mbar 0.82 m/s 228.86 Deg 0.05 ug/m3
2021-07-27 19:00 8.45 ug/m3 111.07 ug/m3 10.16 ug/m3 30.15 C 39.56 % 1,003.63 mbar 0.9 m/s 168.7 Deg 0.17 ug/m3
2021-07-27 18:00 5.67 ug/m3 113.51 ug/m3 12.18 ug/m3 30.08 C 50.92 % 1,003.59 mbar 1.45 m/s 113.83 Deg 0.28 ug/m3
2021-07-27 17:00 6.04 ug/m3 110.85 ug/m3 12.58 ug/m3 30.65 C 51.22 % 1,003.76 mbar 1.76 m/s 20.26 Deg 0.47 ug/m3
2021-07-27 16:00 6.03 ug/m3 105.57 ug/m3 13.15 ug/m3 30.73 C 54.6 % 1,004.07 mbar 1.75 m/s 194.53 Deg 0.73 ug/m3
2021-07-27 15:00 4.72 ug/m3 108.18 ug/m3 10.63 ug/m3 31.22 C 48.61 % 1,004.30 mbar 1.89 m/s 14.45 Deg 0.55 ug/m3
2021-07-27 14:00 3.66 ug/m3 111.79 ug/m3 11.18 ug/m3 31.16 C 49.04 % 1,004.67 mbar 1.78 m/s 185.88 Deg 0.45 ug/m3
2021-07-27 13:00 4.88 ug/m3 110.89 ug/m3 15.04 ug/m3 30.48 C 53.53 % 1,005.18 mbar 1.99 m/s 178.97 Deg 0.67 ug/m3
2021-07-27 12:00 8.54 ug/m3 114.33 ug/m3 7.95 ug/m3 30.65 C 56.57 % 1,005.25 mbar 1.95 m/s 104.57 Deg 0.98 ug/m3
2021-07-27 11:00 8.31 ug/m3 109.34 ug/m3 7.44 ug/m3 31.95 C 38.12 % 1,005.26 mbar 1.22 m/s 305.01 Deg 1.01 ug/m3
2021-07-27 10:00 5.9 ug/m3 104.76 ug/m3 9.84 ug/m3 30.91 C 36.1 % 1,005.30 mbar 1.56 m/s 229.67 Deg 0.92 ug/m3
2021-07-27 09:00 6.19 ug/m3 99.52 ug/m3 15.23 ug/m3 28.76 C 57.21 % 1,005.28 mbar 1.73 m/s 221.7 Deg 0.91 ug/m3
2021-07-27 08:00 25.78 ug/m3 72.85 ug/m3 20.09 ug/m3 26.98 C 77.08 % 1,005.16 mbar 1.35 m/s 189.44 Deg 3.92 ug/m3
2021-07-27 07:00 46.56 ug/m3 30.48 ug/m3 17.99 ug/m3 25.64 C 90.88 % 1,004.93 mbar 0.51 m/s 204.67 Deg 9.16 ug/m3
2021-07-27 06:00 15.03 ug/m3 45.74 ug/m3 12.67 ug/m3 24.39 C 93.61 % 1,004.74 mbar 0.34 m/s 269.15 Deg 0.49 ug/m3
2021-07-27 05:00 8.04 ug/m3 51.36 ug/m3 10.48 ug/m3 24.33 C 92.37 % 1,004.31 mbar 0.29 m/s 283.52 Deg 0.03 ug/m3
2021-07-27 04:00 4.34 ug/m3 64.6 ug/m3 9.4 ug/m3 24.65 C 91.91 % 1,004.01 mbar 0.42 m/s 210.76 Deg 0.13 ug/m3
2021-07-27 03:00 1.51 ug/m3 76.39 ug/m3 8.44 ug/m3 25.16 C 90.87 % 1,004.02 mbar 0.74 m/s 174.27 Deg 0.13 ug/m3
2021-07-27 02:00 0.7 ug/m3 79.92 ug/m3 7.34 ug/m3 25.39 C 88.02 % 1,004.09 mbar 0.95 m/s 169.84 Deg -0.02 ug/m3
2021-07-27 01:00 0.93 ug/m3 83.29 ug/m3 8.42 ug/m3 25.5 C 86.17 % 1,004.28 mbar 1.29 m/s 178.43 Deg -0.03 ug/m3
2021-07-27 00:00 3.22 ug/m3 80.86 ug/m3 8.19 ug/m3 25.73 C 82.76 % 1,004.33 mbar 1.68 m/s 168.43 Deg 0.03 ug/m3
2021-07-26 23:00 2.57 ug/m3 76.33 ug/m3 9.72 ug/m3 25.85 C 82.82 % 1,004.21 mbar 1.62 m/s 175.06 Deg 0.16 ug/m3
2021-07-26 22:00 2.18 ug/m3 76.63 ug/m3 13.11 ug/m3 26.06 C 84.5 % 1,004.01 mbar 2.47 m/s 169.9 Deg 0.02 ug/m3
2021-07-26 21:00 4.05 ug/m3 75.57 ug/m3 9.04 ug/m3 26.42 C 82.12 % 1,003.81 mbar 2.37 m/s 169.75 Deg 0.21 ug/m3
2021-07-26 20:00 4.19 ug/m3 77.62 ug/m3 6.83 ug/m3 27.05 C 74.26 % 1,003.21 mbar 2.63 m/s 173.03 Deg 0.23 ug/m3
2021-07-26 19:00 3.64 ug/m3 80.52 ug/m3 9.21 ug/m3 27.8 C 64.51 % 1,002.86 mbar 2.52 m/s 178.07 Deg 0.28 ug/m3
2021-07-26 18:00 5.2 ug/m3 82.04 ug/m3 8.95 ug/m3 28.6 C 61.46 % 1,002.66 mbar 2.91 m/s 184.15 Deg 0.8 ug/m3
2021-07-26 17:00 6.45 ug/m3 87 ug/m3 14.72 ug/m3 29.75 C 51.5 % 1,002.71 mbar 2.81 m/s 185.35 Deg 1.15 ug/m3
2021-07-26 16:00 7.9 ug/m3 88.06 ug/m3 11.75 ug/m3 30.61 C 46.7 % 1,002.94 mbar 2.78 m/s 186.45 Deg 1.59 ug/m3
2021-07-26 15:00 7.4 ug/m3 92.93 ug/m3 9.12 ug/m3 31.64 C 36.86 % 1,003.22 mbar 2.32 m/s 194.14 Deg 1.47 ug/m3
2021-07-26 14:00 5.08 ug/m3 94.9 ug/m3 4.62 ug/m3 31.94 C 29.27 % 1,003.44 mbar 2.17 m/s 217.3 Deg 1.13 ug/m3
2021-07-26 13:00 4.33 ug/m3 93.64 ug/m3 9.04 ug/m3 31.39 C 33.29 % 1,003.59 mbar 2.28 m/s 211.58 Deg 0.84 ug/m3
2021-07-26 12:00 4.27 ug/m3 93.01 ug/m3 11.41 ug/m3 30.94 C 39.55 % 1,003.68 mbar 2.09 m/s 216.05 Deg 0.88 ug/m3
2021-07-26 11:00 5.06 ug/m3 93.96 ug/m3 12.26 ug/m3 30.11 C 44.13 % 1,003.87 mbar 2.1 m/s 207.77 Deg 1.11 ug/m3
2021-07-26 10:00 8.83 ug/m3 88.36 ug/m3 11.5 ug/m3 29.28 C 51.46 % 1,003.63 mbar 2.64 m/s 190.28 Deg 1.83 ug/m3
2021-07-26 09:00 10.11 ug/m3 83.72 ug/m3 12.35 ug/m3 28.86 C 53.19 % 1,003.36 mbar 2.18 m/s 201.68 Deg 2.15 ug/m3
2021-07-26 08:00 16.48 ug/m3 75.7 ug/m3 15.23 ug/m3 27.31 C 66.47 % 1,003.16 mbar 2.47 m/s 194.03 Deg 2.63 ug/m3
2021-07-26 07:00 54.63 ug/m3 24.7 ug/m3 12.43 ug/m3 25.7 C 84.78 % 1,002.85 mbar 1.5 m/s 173.72 Deg 22.94 ug/m3
2021-07-26 06:00 40.67 ug/m3 23.83 ug/m3 10.82 ug/m3 24.57 C 88.9 % 1,002.45 mbar 0.94 m/s 190.48 Deg 5.8 ug/m3
2021-07-26 05:00 18.75 ug/m3 42.3 ug/m3 7.51 ug/m3 24.48 C 85.97 % 1,001.94 mbar 0.74 m/s 188.46 Deg 0.42 ug/m3
2021-07-26 04:00 10.67 ug/m3 55.89 ug/m3 6.07 ug/m3 24.81 C 81.92 % 1,001.58 mbar 0.54 m/s 221.38 Deg 0.05 ug/m3
2021-07-26 03:00 4.45 ug/m3 69.05 ug/m3 7.68 ug/m3 25.11 C 77.46 % 1,001.48 mbar 0.69 m/s 182.9 Deg -0.07 ug/m3
2021-07-26 02:00 2.93 ug/m3 69.58 ug/m3 7.08 ug/m3 25.02 C 73.42 % 1,001.44 mbar 0.72 m/s 218.11 Deg 0.01 ug/m3
2021-07-26 01:00 4.47 ug/m3 66.44 ug/m3 6.15 ug/m3 25.33 C 73.67 % 1,001.75 mbar 0.57 m/s 213.69 Deg -0.01 ug/m3
2021-07-26 00:00 7.98 ug/m3 60.94 ug/m3 19.65 ug/m3 25.7 C 73.55 % 1,002.18 mbar 0.81 m/s 225.64 Deg 0.08 ug/m3
2021-07-25 23:00 9.07 ug/m3 64.41 ug/m3 24.4 ug/m3 26.22 C 70.66 % 1,002.31 mbar 1.02 m/s 199.22 Deg 0.13 ug/m3
2021-07-25 22:00 6.72 ug/m3 68.88 ug/m3 20.16 ug/m3 26.44 C 69.68 % 1,002.14 mbar 1.31 m/s 193.7 Deg 0.09 ug/m3
2021-07-25 21:00 5.94 ug/m3 71.11 ug/m3 25.59 ug/m3 26.84 C 66.8 % 1,001.71 mbar 0.93 m/s 203.65 Deg 0.02 ug/m3
2021-07-25 20:00 5.83 ug/m3 74.84 ug/m3 22.88 ug/m3 27.39 C 60.68 % 1,001.26 mbar 1.15 m/s 210.17 Deg 0.08 ug/m3
2021-07-25 19:00 9.21 ug/m3 76.75 ug/m3 7.59 ug/m3 28.94 C 48.02 % 1,001.05 mbar 1.93 m/s 209 Deg 0.46 ug/m3
2021-07-25 18:00 10.9 ug/m3 93.73 ug/m3 7 ug/m3 30.78 C 39.73 % 1,001.16 mbar 1.43 m/s 187.67 Deg 0.58 ug/m3
2021-07-25 17:00 5.26 ug/m3 108.56 ug/m3 7.51 ug/m3 31.22 C 40.6 % 1,001.41 mbar 1.55 m/s 237.8 Deg 0.45 ug/m3
2021-07-25 16:00 4.27 ug/m3 112.49 ug/m3 -0.39 ug/m3 31.81 C 37.9 % 1,001.54 mbar 1.84 m/s 263.98 Deg 0.44 ug/m3
2021-07-25 15:00 1.72 ug/m3 109.15 ug/m3 6.23 ug/m3 32.72 C 31.22 % 1,001.69 mbar 1.5 m/s 218.23 Deg 0.27 ug/m3
2021-07-25 14:00 2.93 ug/m3 113.93 ug/m3 9.46 ug/m3 32.29 C 30.53 % 1,002.01 mbar 1.67 m/s 216.54 Deg 0.26 ug/m3
2021-07-25 13:00 3.1 ug/m3 112.16 ug/m3 5.56 ug/m3 32.38 C 27.91 % 1,002.15 mbar 1.88 m/s 142.4 Deg 0.2 ug/m3
2021-07-25 12:00 1.06 ug/m3 103.35 ug/m3 2.5 ug/m3 32.4 C 22.71 % 1,002.23 mbar 1.64 m/s 249.02 Deg 0.06 ug/m3
2021-07-25 11:00 1.81 ug/m3 100.7 ug/m3 8.02 ug/m3 31.81 C 27.87 % 1,002.47 mbar 1.64 m/s 251.4 Deg 0.44 ug/m3
2021-07-25 10:00 1.76 ug/m3 106.17 ug/m3 7.51 ug/m3 32.12 C 22.1 % 1,002.10 mbar 1.3 m/s 278.22 Deg 0.21 ug/m3
2021-07-25 09:00 4.29 ug/m3 105.59 ug/m3 15.57 ug/m3 31.61 C 23.32 % 1,001.78 mbar 0.82 m/s 275.25 Deg 0.41 ug/m3
2021-07-25 08:00 11.68 ug/m3 86.88 ug/m3 13.54 ug/m3 29.81 C 30.15 % 1,001.88 mbar 0.52 m/s 238.85 Deg 1.18 ug/m3
2021-07-25 07:00 28.14 ug/m3 50.62 ug/m3 8.87 ug/m3 26.2 C 42.84 % 1,001.69 mbar 0.4 m/s 256.08 Deg 3.36 ug/m3
2021-07-25 06:00 15.38 ug/m3 53.48 ug/m3 7.34 ug/m3 23.57 C 53.35 % 1,001.53 mbar 0.34 m/s 205 Deg 0.53 ug/m3
2021-07-25 05:00 8.5 ug/m3 55.17 ug/m3 8.53 ug/m3 23.66 C 57.66 % 1,001.12 mbar 0.36 m/s 270.28 Deg 0.1 ug/m3
2021-07-25 04:00 4.94 ug/m3 60.56 ug/m3 12.35 ug/m3 23.94 C 61.52 % 1,000.92 mbar 0.27 m/s 186.2 Deg 0.04 ug/m3
2021-07-25 03:00 8.76 ug/m3 57.95 ug/m3 20.41 ug/m3 24.31 C 56.31 % 1,001.02 mbar 0.29 m/s 253.52 Deg -0.07 ug/m3
2021-07-25 02:00 14.12 ug/m3 55.63 ug/m3 20.07 ug/m3 24.45 C 49.11 % 1,001.16 mbar 0.29 m/s 200.24 Deg 0.11 ug/m3
2021-07-25 01:00 15.84 ug/m3 66.22 ug/m3 8.53 ug/m3 24.79 C 47.72 % 1,001.53 mbar 0.42 m/s 235.59 Deg 0.03 ug/m3
2021-07-25 00:00 11.24 ug/m3 73.42 ug/m3 7.59 ug/m3 25.67 C 46.16 % 1,002.01 mbar 0.5 m/s 282.63 Deg 0.2 ug/m3
2021-07-24 23:00 3.73 ug/m3 86.37 ug/m3 8.36 ug/m3 25.88 C 50.48 % 1,002.30 mbar 0.44 m/s 294.82 Deg 0.05 ug/m3
2021-07-24 22:00 2.32 ug/m3 92.58 ug/m3 8.19 ug/m3 26.21 C 55.06 % 1,002.47 mbar 0.73 m/s 312.11 Deg 0.11 ug/m3
2021-07-24 21:00 3.38 ug/m3 94.36 ug/m3 7.93 ug/m3 26.97 C 45.92 % 1,002.15 mbar 0.58 m/s 318.21 Deg 0.03 ug/m3
2021-07-24 20:00 3.42 ug/m3 93.02 ug/m3 7.42 ug/m3 27.84 C 37.94 % 1,001.72 mbar 0.81 m/s 319.16 Deg 0.08 ug/m3
2021-07-24 19:00 2.34 ug/m3 94.98 ug/m3 9.21 ug/m3 29.49 C 32.04 % 1,001.38 mbar 1.14 m/s 327.62 Deg 0.16 ug/m3
2021-07-24 18:00 1.36 ug/m3 95.73 ug/m3 8.36 ug/m3 30.93 C 31.07 % 1,001.05 mbar 1.44 m/s 243.05 Deg 0.08 ug/m3
2021-07-24 17:00 0.81 ug/m3 96.57 ug/m3 7.76 ug/m3 31.63 C 29.49 % 1,001.10 mbar 1.52 m/s 340.84 Deg 0.15 ug/m3
2021-07-24 16:00 0.68 ug/m3 97.56 ug/m3 5.81 ug/m3 31.64 C 29.68 % 1,001.22 mbar 1.89 m/s 340.03 Deg 0.09 ug/m3
2021-07-24 15:00 0.82 ug/m3 100.75 ug/m3 8.44 ug/m3 32.3 C 27.18 % 1,001.30 mbar 1.84 m/s 344.9 Deg 0.12 ug/m3
2021-07-24 14:00 1.85 ug/m3 100.94 ug/m3 7.59 ug/m3 32.74 C 30.9 % 1,001.51 mbar 1.29 m/s 321.47 Deg 0.24 ug/m3
2021-07-24 13:00 3.62 ug/m3 96.16 ug/m3 6.74 ug/m3 33.23 C 27.86 % 1,001.87 mbar 1.64 m/s 332.02 Deg 1.23 ug/m3
2021-07-24 12:00 2.73 ug/m3 98.25 ug/m3 8.27 ug/m3 32.98 C 27.36 % 1,002.08 mbar 1.48 m/s 342.67 Deg 0.54 ug/m3
2021-07-24 11:00 5.55 ug/m3 99 ug/m3 10.73 ug/m3 32.12 C 34.71 % 1,002.15 mbar 1.62 m/s 255.85 Deg 0.73 ug/m3
2021-07-24 10:00 8.91 ug/m3 92.49 ug/m3 9.97 ug/m3 30.32 C 48.45 % 1,001.99 mbar 2.05 m/s 15.95 Deg 1.44 ug/m3
2021-07-24 09:00 5.48 ug/m3 93.55 ug/m3 12.18 ug/m3 29.93 C 46.28 % 1,001.78 mbar 1.3 m/s 345.54 Deg 0.84 ug/m3
2021-07-24 08:00 6.49 ug/m3 91.51 ug/m3 7.25 ug/m3 27.7 C 60.84 % 1,001.75 mbar 1.37 m/s 353.63 Deg 0.92 ug/m3
2021-07-24 07:00 8.29 ug/m3 88.59 ug/m3 6.83 ug/m3 25.93 C 74.56 % 1,001.50 mbar 1.53 m/s 342.12 Deg 0.5 ug/m3
2021-07-24 06:00 7.82 ug/m3 91 ug/m3 6.57 ug/m3 25.11 C 69.98 % 1,001.36 mbar 1.05 m/s 301.27 Deg -0.03 ug/m3
2021-07-24 05:00 5.56 ug/m3 89.31 ug/m3 4.88 ug/m3 24.93 C 64.53 % 1,001.27 mbar 0.61 m/s 252.56 Deg -0.07 ug/m3
2021-07-24 04:00 1.51 ug/m3 98.56 ug/m3 6.91 ug/m3 25.09 C 57.84 % 1,001.37 mbar 1.01 m/s 297.93 Deg 0.05 ug/m3
2021-07-24 03:00 4.84 ug/m3 89.56 ug/m3 6.66 ug/m3 24.7 C 55.5 % 1,001.73 mbar 0.65 m/s 329.33 Deg 0.04 ug/m3
2021-07-24 02:00 11.23 ug/m3 72.31 ug/m3 8.87 ug/m3 24.61 C 60.16 % 1,002.05 mbar 0.49 m/s 256.93 Deg 0.09 ug/m3
2021-07-24 01:00 7.21 ug/m3 81.63 ug/m3 13.28 ug/m3 25.29 C 55.41 % 1,002.34 mbar 0.74 m/s 317.62 Deg -0.01 ug/m3
2021-07-24 00:00 24.55 ug/m3 51 ug/m3 12.6 ug/m3 25.22 C 54.65 % 1,002.53 mbar 0.55 m/s 278.45 Deg 0.07 ug/m3
2021-07-23 23:00 24.26 ug/m3 46.61 ug/m3 10.99 ug/m3 25.59 C 60.46 % 1,002.63 mbar 0.4 m/s 268.75 Deg 0.17 ug/m3
2021-07-23 22:00 27.8 ug/m3 53.58 ug/m3 8.78 ug/m3 26.15 C 61.29 % 1,002.53 mbar 0.71 m/s 277.41 Deg 0.08 ug/m3
2021-07-23 21:00 12.47 ug/m3 83.32 ug/m3 8.02 ug/m3 26.83 C 58.91 % 1,002.24 mbar 0.58 m/s 248.26 Deg 0.03 ug/m3
2021-07-23 20:00 5.89 ug/m3 97.75 ug/m3 6.74 ug/m3 27.44 C 52.4 % 1,001.75 mbar 0.84 m/s 189.71 Deg 0.12 ug/m3
2021-07-23 19:00 3.61 ug/m3 102.61 ug/m3 9.89 ug/m3 28.37 C 44.85 % 1,001.57 mbar 2 m/s 21.3 Deg 0.12 ug/m3
2021-07-23 18:00 2.35 ug/m3 104.76 ug/m3 9.97 ug/m3 30.96 C 38.48 % 1,001.11 mbar 1.38 m/s 338.43 Deg 0.12 ug/m3
2021-07-23 17:00 1.78 ug/m3 107.34 ug/m3 9.8 ug/m3 31.97 C 33.44 % 1,001.20 mbar 1.44 m/s 311.21 Deg 0.23 ug/m3
2021-07-23 16:00 2.61 ug/m3 112.05 ug/m3 11.84 ug/m3 31.93 C 38.55 % 1,001.47 mbar 1.54 m/s 296.37 Deg 0.23 ug/m3
2021-07-23 15:00 5.23 ug/m3 119.94 ug/m3 11.5 ug/m3 31.9 C 41.69 % 1,001.70 mbar 1.46 m/s 315.69 Deg 0.62 ug/m3
2021-07-23 14:00 6.75 ug/m3 129.56 ug/m3 8.95 ug/m3 31.59 C 45.96 % 1,002.03 mbar 1.53 m/s 141.37 Deg 0.5 ug/m3
2021-07-23 13:00 6.62 ug/m3 122.37 ug/m3 16.25 ug/m3 31.3 C 46 % 1,002.44 mbar 1.86 m/s 161.92 Deg 0.66 ug/m3
2021-07-23 12:00 9.97 ug/m3 117.72 ug/m3 13.79 ug/m3 31.9 C 38.71 % 1,002.72 mbar 1.58 m/s 212.63 Deg 1.22 ug/m3
2021-07-23 11:00 15.32 ug/m3 108.89 ug/m3 13.28 ug/m3 31.24 C 41.64 % 1,002.88 mbar 1.45 m/s 261.25 Deg 2.1 ug/m3
2021-07-23 10:00 17.04 ug/m3 95.93 ug/m3 14.13 ug/m3 30.1 C 45.88 % 1,003.00 mbar 1.63 m/s 223.47 Deg 2.73 ug/m3
2021-07-23 09:00 18.7 ug/m3 86.01 ug/m3 15.57 ug/m3 29.26 C 48.79 % 1,002.90 mbar 1.48 m/s 219.82 Deg 3.51 ug/m3
2021-07-23 08:00 17.3 ug/m3 81.92 ug/m3 10.82 ug/m3 27.97 C 55.78 % 1,002.78 mbar 1.2 m/s 183.87 Deg 2.49 ug/m3
2021-07-23 07:00 19.1 ug/m3 70.79 ug/m3 10.56 ug/m3 26.27 C 73.93 % 1,002.46 mbar 0.85 m/s 263.83 Deg 1.74 ug/m3
2021-07-23 06:00 16.32 ug/m3 58.51 ug/m3 8.27 ug/m3 24.36 C 88.52 % 1,002.22 mbar 0.76 m/s 22.93 Deg 0.44 ug/m3
2021-07-23 05:00 7.57 ug/m3 66.83 ug/m3 10.39 ug/m3 24.15 C 89.2 % 1,001.94 mbar 1.09 m/s 98.3 Deg 0.08 ug/m3
2021-07-23 04:00 6.75 ug/m3 68.23 ug/m3 9.46 ug/m3 24.32 C 88.2 % 1,001.88 mbar 1.35 m/s 94.88 Deg 0.06 ug/m3
2021-07-23 03:00 4.91 ug/m3 76.4 ug/m3 10.56 ug/m3 24.6 C 82.94 % 1,001.96 mbar 1.68 m/s 265.08 Deg 0.07 ug/m3
2021-07-23 02:00 4.4 ug/m3 84.53 ug/m3 7 ug/m3 25.53 C 72.65 % 1,002.00 mbar 1.13 m/s 340.66 Deg 0.1 ug/m3
2021-07-23 01:00 2.3 ug/m3 94.89 ug/m3 6.66 ug/m3 25.95 C 66.51 % 1,002.20 mbar 1.25 m/s 313.89 Deg 0.03 ug/m3
2021-07-23 00:00 0.97 ug/m3 101.71 ug/m3 7.85 ug/m3 26.54 C 57.93 % 1,002.42 mbar 1.89 m/s 307.74 Deg 0.03 ug/m3
2021-07-22 23:00 1.51 ug/m3 104.53 ug/m3 6.49 ug/m3 27.22 C 50.01 % 1,002.63 mbar 2.14 m/s 310.28 Deg 0.08 ug/m3
2021-07-22 22:00 1.58 ug/m3 107.66 ug/m3 6.07 ug/m3 27.64 C 45.59 % 1,002.83 mbar 1.7 m/s 302.78 Deg 0.2 ug/m3
2021-07-22 21:00 2.51 ug/m3 108.19 ug/m3 8.02 ug/m3 27.55 C 45.98 % 1,002.93 mbar 1.24 m/s 335.22 Deg 0.11 ug/m3
2021-07-22 20:00 3.08 ug/m3 109.87 ug/m3 7.68 ug/m3 27.48 C 47.87 % 1,002.82 mbar 1.17 m/s 329.22 Deg 0.08 ug/m3
2021-07-22 19:00 2.55 ug/m3 112.82 ug/m3 9.89 ug/m3 28.02 C 46.87 % 1,002.78 mbar 1.82 m/s 342.57 Deg 0.08 ug/m3
2021-07-22 18:00 1.88 ug/m3 108.83 ug/m3 10.23 ug/m3 28.55 C 50.26 % 1,002.70 mbar 2.48 m/s 339.27 Deg 0.02 ug/m3
2021-07-22 17:00 2.11 ug/m3 93.81 ug/m3 13.79 ug/m3 30.57 C 47.84 % 1,002.56 mbar 1.92 m/s 253.72 Deg 0.35 ug/m3
2021-07-22 16:00 4.2 ug/m3 100.3 ug/m3 12.77 ug/m3 32.18 C 35.92 % 1,002.73 mbar 1.95 m/s 305.23 Deg 0.64 ug/m3
2021-07-22 15:00 5 ug/m3 102.74 ug/m3 10.9 ug/m3 32.9 C 32.57 % 1,002.95 mbar 2.03 m/s 302.57 Deg 0.69 ug/m3
2021-07-22 14:00 3.34 ug/m3 106.31 ug/m3 8.95 ug/m3 33.16 C 32.15 % 1,003.41 mbar 1.25 m/s 327.51 Deg 0.67 ug/m3
2021-07-22 13:00 2.91 ug/m3 108.87 ug/m3 11.58 ug/m3 32.5 C 35.88 % 1,004.04 mbar 1.83 m/s 177.4 Deg 0.32 ug/m3
2021-07-22 12:00 2.45 ug/m3 108.17 ug/m3 12.43 ug/m3 31.68 C 41.4 % 1,004.46 mbar 1.96 m/s 98.53 Deg 0.25 ug/m3
2021-07-22 11:00 4.36 ug/m3 107.64 ug/m3 11.58 ug/m3 31.05 C 50.37 % 1,004.67 mbar 1.44 m/s 255.64 Deg 0.51 ug/m3
2021-07-22 10:00 6.59 ug/m3 98.13 ug/m3 14.13 ug/m3 29.13 C 58.73 % 1,004.63 mbar 1.75 m/s 17.13 Deg 1 ug/m3
2021-07-22 09:00 6.8 ug/m3 91.61 ug/m3 14.56 ug/m3 27.83 C 65.1 % 1,004.60 mbar 1.6 m/s 17.87 Deg 1.02 ug/m3
2021-07-22 08:00 8.15 ug/m3 86.1 ug/m3 12.26 ug/m3 26.98 C 70.52 % 1,004.33 mbar 1.65 m/s 181.83 Deg 2.2 ug/m3
2021-07-22 07:00 10.69 ug/m3 84.37 ug/m3 11.92 ug/m3 25.93 C 76 % 1,003.99 mbar 0.93 m/s 335.77 Deg 0.52 ug/m3
2021-07-22 06:00 15.25 ug/m3 76.96 ug/m3 10.39 ug/m3 24.72 C 73.69 % 1,003.85 mbar 0.63 m/s 331.41 Deg 0.35 ug/m3
2021-07-22 05:00 18.99 ug/m3 65.18 ug/m3 10.23 ug/m3 24.06 C 58.18 % 1,003.65 mbar 0.38 m/s 310.2 Deg 0.09 ug/m3
2021-07-22 04:00 12.79 ug/m3 54.5 ug/m3 10.23 ug/m3 24.04 C 63.62 % 1,003.47 mbar 0.41 m/s 288.67 Deg 0.18 ug/m3
2021-07-22 03:00 9.49 ug/m3 61.23 ug/m3 13.45 ug/m3 23.92 C 70.53 % 1,003.53 mbar 0.47 m/s 290.72 Deg 0.13 ug/m3
2021-07-22 02:00 7.24 ug/m3 63.83 ug/m3 15.74 ug/m3 23.83 C 85.11 % 1,003.78 mbar 0.46 m/s 273.84 Deg 0.1 ug/m3
2021-07-22 01:00 7.03 ug/m3 72.32 ug/m3 15.91 ug/m3 24.33 C 87.14 % 1,004.20 mbar 0.48 m/s 282.02 Deg -0.1 ug/m3
2021-07-22 00:00 6.61 ug/m3 87.68 ug/m3 12.77 ug/m3 24.57 C 86.74 % 1,004.43 mbar 0.8 m/s 146.86 Deg 0.02 ug/m3
2021-07-21 23:00 6.3 ug/m3 88.83 ug/m3 11.84 ug/m3 24.68 C 86.32 % 1,004.48 mbar 0.71 m/s 170.16 Deg 0.03 ug/m3
2021-07-21 22:00 5.92 ug/m3 95.72 ug/m3 11.24 ug/m3 24.93 C 85.01 % 1,004.47 mbar 0.87 m/s 244.99 Deg 0.02 ug/m3
2021-07-21 21:00 4.35 ug/m3 96.09 ug/m3 11.07 ug/m3 25.39 C 81.69 % 1,004.33 mbar 1.41 m/s 14.27 Deg 0.02 ug/m3
2021-07-21 20:00 3.84 ug/m3 87.9 ug/m3 10.14 ug/m3 26 C 74.71 % 1,003.80 mbar 1.81 m/s 11.8 Deg 0 ug/m3
2021-07-21 19:00 3.11 ug/m3 95.95 ug/m3 10.82 ug/m3 27.51 C 60.95 % 1,003.34 mbar 1.51 m/s 178.35 Deg 0.19 ug/m3
2021-07-21 18:00 6.6 ug/m3 94.22 ug/m3 11.84 ug/m3 29.08 C 56.73 % 1,002.92 mbar 1.65 m/s 177.87 Deg 0.73 ug/m3
2021-07-21 17:00 4.9 ug/m3 99.74 ug/m3 12.26 ug/m3 29.82 C 55.55 % 1,002.75 mbar 1.54 m/s 259.89 Deg 0.67 ug/m3
2021-07-21 16:00 5.08 ug/m3 107.19 ug/m3 10.56 ug/m3 29.92 C 54.29 % 1,002.94 mbar 1.77 m/s 110.08 Deg 0.79 ug/m3
2021-07-21 15:00 3.46 ug/m3 106.06 ug/m3 11.07 ug/m3 30.44 C 51.25 % 1,003.14 mbar 1.51 m/s 242.21 Deg 0.42 ug/m3
2021-07-21 14:00 4.16 ug/m3 110.96 ug/m3 11.67 ug/m3 30.17 C 48.11 % 1,003.47 mbar 1.71 m/s 249.24 Deg 0.67 ug/m3
2021-07-21 13:00 4.78 ug/m3 109.16 ug/m3 14.3 ug/m3 29.81 C 47.58 % 1,003.74 mbar 2.19 m/s 211.78 Deg 0.99 ug/m3
2021-07-21 12:00 6.14 ug/m3 111.37 ug/m3 14.81 ug/m3 29.59 C 48.76 % 1,003.97 mbar 2.08 m/s 198.67 Deg 1.05 ug/m3
2021-07-21 11:00 13.76 ug/m3 110.99 ug/m3 18.04 ug/m3 29.17 C 50.97 % 1,004.08 mbar 2.14 m/s 213.55 Deg 2.03 ug/m3
2021-07-21 10:00 17.66 ug/m3 103.16 ug/m3 16.76 ug/m3 29.33 C 48.47 % 1,003.93 mbar 1.65 m/s 149.15 Deg 2.34 ug/m3

It is to be noted that the data is provisional and subject to quality assurance procedures. For validated data kindly refer your request to contact.air@era.org.mt